Weather at Adolfo Suárez Madrid–Barajas Airport

Public forecast

Using degrees Celsius for public forecast. Weather courtesy of forecast.io.

Current aviation weather report (METAR) for Adolfo Suárez Madrid–Barajas Airport

Retrieved 2021/01/28 07:30 UTC (17 minutes ago):

LEMD 280730Z VRB02KT 4500 BR BCFG SCT002 BKN006 10/10 Q1026 NOSIG

Aviation forecast (TAF) for Adolfo Suárez Madrid–Barajas Airport

Retrieved 2021/01/28 06:27 UTC (1 hour ago):

TAF LEMD 280500Z 2806/2912 VRB04KT 9999 BKN030 TX18/2815Z TN07/2906Z TEMPO 2806/2812 4000 BR BCFG BKN004 PROB30 TEMPO 2806/2811 0600 FG VV001 PROB30 TEMPO 2811/2822 21010KT BKN008 PROB40 TEMPO 2822/2909 4000 BR BKN008 PROB30 TEMPO 2901/2908 0600 FG VV002